Terminal Aerodrome Forecast
Issued by NWS

Home | Current Version | Previous Version | Text Only | Print | Product List | Glossary On
Versions: 1 2 3 4 5 6 7 8 9 10 11 12
888
FTUS43 KOAX 222320
TAFCDR
TAF
KCDR 222320Z 2300/2324 27015KT P6SM BKN150
     FM230200 27011KT P6SM SCT250
     FM230500 28015G22KT P6SM BKN070
     FM230900 31023G32KT P6SM BKN080
     FM231200 31016G24KT P6SM SCT250=

USA.gov is the U.S. government's official web portal to all federal, state and local government web resources and services.